SABE/AEP METAR and TAF weather

Enter ICAO airport designator
Station Type Date Time Source
SABE METAR 2019/10/23 03:00 UTC NOAA

SABE 230300Z 29009KT CAVOK 16/08 Q1015 NOSIG


Station Type Date Time Source
SABE Decoded METAR 2019/10/23 03:00 UTC NOAA

Aeroparque Bs. As. Aerodrome, Argentina (SABE) 34-34S 058-25W 6M
Oct 22, 2019 - 11:00 PM EDT / 2019.10.23 0300 UTC
Wind: from the WNW (290 degrees) at 10 MPH (9 KT):0
Visibility: greater than 7 mile(s):0
Temperature: 60 F (16 C)
Dew Point: 46 F (8 C)
Relative Humidity: 58%
Pressure (altimeter): 29.97 in. Hg (1015 hPa)
ob: SABE 230300Z 29009KT CAVOK 16/08 Q1015 NOSIG
cycle: 3

Station Type Date Time Source
SABE TAF 2019/10/23 00:00 UTC NOAA

TAF SABE 222300Z 2300/2324 29005KT 9999 FEW035 TX23/2318Z TN13/2309Z
BECMG 2303/2305 24010KT SCT030 BKN080
BECMG 2312/2314 24015KT 9999 SCT020 SCT030
BECMG 2316/2318 25020KT CAVOK

Example: see airport list